createdAt,value
2023-02-20T00:00:27.851Z,9.68
2023-02-20T00:02:54.564Z,14.10
2023-02-20T00:05:21.349Z,13.35
2023-02-20T00:07:48.011Z,42.63
2023-02-20T00:10:14.633Z,10.60
2023-02-20T00:12:41.300Z,12.57
2023-02-20T00:15:08.478Z,53.72
2023-02-20T00:17:35.227Z,14.55
2023-02-20T00:20:02.604Z,12.18
2023-02-20T00:22:29.365Z,7.95
2023-02-20T00:24:56.014Z,11.30
2023-02-20T00:27:22.766Z,9.73
2023-02-20T00:29:49.400Z,10.07
2023-02-20T00:32:16.206Z,11.80
2023-02-20T00:34:42.975Z,8.02
2023-02-20T00:37:09.815Z,9.57
2023-02-20T00:39:36.466Z,8.88
2023-02-20T00:42:03.273Z,9.18
2023-02-20T00:44:29.898Z,12.60
2023-02-20T00:46:56.583Z,10.38
2023-02-20T00:49:23.189Z,11.25
2023-02-20T00:51:49.785Z,10.30
2023-02-20T00:54:16.479Z,9.88
2023-02-20T00:56:43.135Z,10.35
2023-02-20T00:59:09.788Z,8.10
2023-02-20T01:01:36.460Z,8.85
2023-02-20T01:04:04.201Z,10.45
2023-02-20T01:06:30.827Z,10.20
2023-02-20T01:08:57.488Z,7.53
2023-02-20T01:11:24.163Z,8.35
2023-02-20T01:13:50.823Z,8.80
2023-02-20T01:16:17.629Z,8.48
2023-02-20T01:18:44.648Z,6.07
2023-02-20T01:21:11.305Z,7.85
2023-02-20T01:23:38.019Z,6.82
2023-02-20T01:26:04.783Z,7.72
2023-02-20T01:28:31.433Z,9.40
2023-02-20T01:30:58.061Z,7.60
2023-02-20T01:33:24.810Z,7.40
2023-02-20T01:35:51.465Z,3.95
2023-02-20T01:38:18.077Z,7.75
2023-02-20T01:40:49.268Z,7.30
2023-02-20T01:43:16.312Z,9.07
2023-02-20T01:45:43.105Z,8.43
2023-02-20T01:48:27.964Z,9.27
2023-02-20T01:50:58.836Z,5.28
2023-02-20T01:53:25.855Z,8.35
2023-02-20T01:55:55.815Z,7.80
2023-02-20T01:58:25.401Z,7.93
2023-02-20T02:00:52.167Z,5.57
2023-02-20T02:03:21.777Z,10.38
2023-02-20T02:05:49.550Z,9.55
2023-02-20T02:08:16.873Z,9.82
2023-02-20T02:11:03.014Z,11.40
2023-02-20T02:13:30.561Z,7.28
2023-02-20T02:16:26.369Z,14.38
2023-02-20T02:19:01.934Z,5.70
2023-02-20T02:21:34.327Z,6.38
2023-02-20T02:24:16.061Z,6.10
2023-02-20T02:27:00.749Z,4.20
2023-02-20T02:30:04.350Z,6.03
2023-02-20T02:32:55.318Z,6.63
2023-02-20T02:35:49.136Z,7.10
2023-02-20T02:38:38.657Z,8.38
2023-02-20T02:41:10.334Z,6.00
2023-02-20T02:43:55.014Z,5.55
2023-02-20T02:46:28.942Z,3.83
2023-02-20T02:49:31.331Z,5.93
2023-02-20T02:51:57.978Z,7.50
2023-02-20T02:54:26.423Z,7.95
2023-02-20T02:56:53.545Z,4.85
2023-02-20T02:59:25.457Z,6.68
2023-02-20T03:02:00.752Z,5.93
2023-02-20T03:04:30.454Z,5.18
2023-02-20T03:07:09.251Z,5.35
2023-02-20T03:09:42.053Z,6.18
2023-02-20T03:12:09.566Z,4.55
2023-02-20T03:14:59.132Z,5.50
2023-02-20T03:17:58.227Z,5.32
2023-02-20T03:20:24.908Z,5.43
2023-02-20T03:22:57.349Z,5.65
2023-02-20T03:25:26.877Z,4.30
2023-02-20T03:27:58.302Z,6.80
2023-02-20T03:30:32.800Z,7.53
2023-02-20T03:33:23.246Z,6.53
2023-02-20T03:36:09.072Z,5.90
2023-02-20T03:38:55.955Z,7.38
2023-02-20T03:41:41.126Z,10.73
2023-02-20T03:44:07.795Z,5.93
2023-02-20T03:46:34.830Z,6.15
2023-02-20T03:49:06.818Z,3.80
2023-02-20T03:51:33.499Z,3.97
2023-02-20T03:54:00.250Z,3.45
2023-02-20T03:56:37.114Z,4.20
2023-02-20T03:59:29.135Z,2.13
2023-02-20T04:02:02.498Z,2.53
2023-02-20T04:04:35.644Z,2.17
2023-02-20T04:07:03.400Z,1.95
2023-02-20T04:09:31.075Z,1.58
2023-02-20T04:12:05.200Z,5.53
2023-02-20T04:14:31.797Z,6.95
2023-02-20T04:17:01.415Z,3.15
2023-02-20T04:19:28.043Z,2.97
2023-02-20T04:22:00.022Z,2.28
2023-02-20T04:24:35.059Z,4.05
2023-02-20T04:29:28.440Z,3.30
2023-02-20T04:31:55.163Z,3.63
2023-02-20T04:34:21.775Z,3.60
2023-02-20T04:36:48.396Z,5.80
2023-02-20T04:39:15.031Z,3.00
2023-02-20T04:41:41.657Z,3.60
2023-02-20T04:44:27.003Z,6.88
2023-02-20T04:46:53.661Z,3.95
2023-02-20T04:49:20.278Z,3.63
2023-02-20T04:51:46.936Z,3.33
2023-02-20T04:54:13.564Z,3.65
2023-02-20T04:56:40.380Z,5.53
2023-02-20T04:59:07.050Z,3.85
2023-02-20T05:01:33.753Z,7.25
2023-02-20T05:04:00.432Z,21.42
2023-02-20T05:06:27.098Z,1.85
2023-02-20T05:08:53.838Z,2.97
2023-02-20T05:11:20.437Z,16.92
2023-02-20T05:13:47.077Z,5.45
2023-02-20T05:16:14.261Z,5.63
2023-02-20T05:18:41.092Z,2.78
2023-02-20T05:21:26.436Z,3.22
2023-02-20T05:23:53.100Z,10.98
2023-02-20T05:26:21.227Z,6.03
2023-02-20T05:28:47.870Z,6.78
2023-02-20T05:31:17.313Z,5.88
2023-02-20T05:33:44.501Z,5.20
2023-02-20T05:36:11.428Z,2.67
2023-02-20T05:38:38.293Z,6.78
2023-02-20T05:41:05.164Z,6.80
2023-02-20T05:43:31.873Z,8.02
2023-02-20T05:45:58.717Z,5.85
2023-02-20T05:48:25.351Z,5.25
2023-02-20T05:50:54.123Z,10.73
2023-02-20T05:53:20.898Z,1.38
2023-02-20T05:55:47.591Z,10.20
2023-02-20T05:58:14.338Z,10.40
2023-02-20T06:00:41.021Z,17.95
2023-02-20T06:03:08.228Z,9.52
2023-02-20T06:05:34.942Z,10.65
2023-02-20T06:08:01.655Z,6.78
2023-02-20T06:10:28.285Z,9.20
2023-02-20T06:12:54.934Z,6.55
2023-02-20T06:15:21.540Z,3.40
2023-02-20T06:17:48.293Z,1.90
2023-02-20T06:20:15.331Z,6.25
2023-02-20T06:22:42.031Z,3.90
2023-02-20T06:25:08.718Z,2.50
2023-02-20T06:27:35.555Z,2.13
2023-02-20T06:30:02.263Z,5.82
2023-02-20T06:32:29.124Z,10.48
2023-02-20T06:34:55.918Z,1.77
2023-02-20T06:37:22.530Z,2.13
2023-02-20T06:39:49.442Z,5.55
2023-02-20T06:42:16.517Z,0.80
2023-02-20T06:44:43.213Z,3.88
2023-02-20T06:47:09.983Z,5.60
2023-02-20T06:49:36.939Z,5.55
2023-02-20T06:52:04.458Z,4.43
2023-02-20T06:54:31.308Z,2.78
2023-02-20T06:56:58.786Z,10.93
2023-02-20T06:59:25.493Z,6.65
2023-02-20T07:01:52.178Z,5.53
2023-02-20T07:04:20.572Z,4.95
2023-02-20T07:11:41.021Z,3.58
2023-02-20T07:14:07.642Z,3.47
2023-02-20T07:16:34.327Z,6.20
2023-02-20T07:19:01.020Z,7.25
2023-02-20T07:21:27.685Z,5.47
2023-02-20T07:23:54.330Z,3.72
2023-02-20T07:26:25.206Z,2.47
2023-02-20T07:28:54.433Z,2.88
2023-02-20T07:31:21.423Z,14.60
2023-02-20T07:33:48.200Z,5.97
2023-02-20T07:36:15.238Z,3.42
2023-02-20T07:38:42.060Z,1.90
2023-02-20T07:41:08.884Z,6.55
2023-02-20T07:43:35.556Z,1.88
2023-02-20T07:46:02.612Z,1.42
2023-02-20T07:48:29.411Z,3.38
2023-02-20T07:50:56.141Z,4.60
2023-02-20T07:53:22.829Z,2.40
2023-02-20T07:55:49.635Z,13.30
2023-02-20T07:58:16.309Z,3.33
2023-02-20T08:00:42.938Z,2.75
2023-02-20T08:03:09.909Z,1.60
2023-02-20T08:05:48.608Z,5.07
2023-02-20T08:08:15.623Z,2.83
2023-02-20T08:10:42.378Z,6.95
2023-02-20T08:13:09.253Z,6.95
2023-02-20T08:15:35.928Z,4.00
2023-02-20T08:18:04.347Z,14.52
2023-02-20T08:20:32.846Z,2.85
2023-02-20T08:23:00.856Z,0.30
2023-02-20T08:25:27.517Z,3.22
2023-02-20T08:27:54.303Z,0.65
2023-02-20T08:30:25.800Z,2.30
2023-02-20T08:32:53.049Z,6.53
2023-02-20T08:35:20.040Z,2.35
2023-02-20T08:37:46.710Z,1.48
2023-02-20T08:40:13.418Z,0.95
2023-02-20T08:42:40.041Z,3.13
2023-02-20T08:45:07.276Z,1.77
2023-02-20T08:47:33.928Z,0.85
2023-02-20T08:50:03.333Z,1.80
2023-02-20T08:52:30.019Z,1.27
2023-02-20T08:54:56.716Z,2.08
2023-02-20T08:57:23.686Z,1.90
2023-02-20T08:59:50.414Z,3.88
2023-02-20T09:02:22.305Z,2.05
2023-02-20T09:04:49.165Z,6.43
2023-02-20T09:07:15.856Z,6.43
2023-02-20T09:09:42.569Z,5.20
2023-02-20T09:12:09.573Z,32.35
2023-02-20T09:14:36.600Z,1.83
2023-02-20T09:17:03.560Z,6.22
2023-02-20T09:19:30.209Z,4.65
2023-02-20T09:21:57.958Z,1.65
2023-02-20T09:24:34.339Z,4.47
2023-02-20T09:27:02.785Z,2.30
2023-02-20T09:31:56.332Z,10.32
2023-02-20T09:34:23.247Z,13.40
2023-02-20T09:36:49.866Z,7.65
2023-02-20T09:39:18.035Z,0.20
2023-02-20T09:41:59.963Z,3.97
2023-02-20T09:45:07.256Z,1.08
2023-02-20T09:47:55.326Z,3.65
2023-02-20T09:50:31.744Z,4.40
2023-02-20T09:53:01.757Z,20.33
2023-02-20T09:55:29.674Z,4.57
2023-02-20T09:57:56.431Z,3.22
2023-02-20T10:00:32.562Z,0.70
2023-02-20T10:03:21.245Z,0.95
2023-02-20T10:05:49.771Z,6.00
2023-02-20T10:08:19.733Z,2.13
2023-02-20T10:10:49.029Z,3.10
2023-02-20T10:13:18.745Z,1.27
2023-02-20T10:16:10.865Z,6.28
2023-02-20T10:18:50.251Z,6.22
2023-02-20T10:21:30.558Z,2.88
2023-02-20T10:24:05.920Z,2.15
2023-02-20T10:26:34.773Z,2.30
2023-02-20T10:29:31.634Z,1.77
2023-02-20T10:32:08.388Z,0.77
2023-02-20T10:34:41.022Z,0.70
2023-02-20T10:37:24.960Z,8.82
2023-02-20T10:40:06.688Z,2.75
2023-02-20T10:42:38.680Z,11.85
2023-02-20T10:45:20.216Z,2.03
2023-02-20T10:47:53.125Z,5.22
2023-02-20T10:50:48.869Z,1.48
2023-02-20T10:53:20.282Z,2.58
2023-02-20T10:56:08.029Z,1.15
2023-02-20T10:59:05.219Z,7.30
2023-02-20T11:01:31.869Z,0.95
2023-02-20T11:04:04.088Z,2.88
2023-02-20T11:06:37.103Z,2.17
2023-02-20T11:09:04.076Z,6.03
2023-02-20T11:11:33.620Z,2.50
2023-02-20T11:14:01.456Z,12.10
2023-02-20T11:16:33.083Z,3.25
2023-02-20T11:19:06.445Z,2.90
2023-02-20T11:21:40.933Z,3.20
2023-02-20T11:24:32.027Z,2.90
2023-02-20T11:27:21.152Z,5.93
2023-02-20T11:30:16.587Z,1.88
2023-02-20T11:32:43.262Z,13.63
2023-02-20T11:35:19.102Z,1.42
2023-02-20T11:38:09.320Z,8.30
2023-02-20T11:40:36.003Z,1.67
2023-02-20T11:43:19.002Z,4.85
2023-02-20T11:45:45.761Z,3.00
2023-02-20T11:48:19.964Z,7.40
2023-02-20T11:50:51.034Z,4.53
2023-02-20T11:53:32.228Z,2.55
2023-02-20T11:56:14.405Z,4.38
2023-02-20T11:58:42.813Z,2.70
2023-02-20T12:01:31.381Z,6.07
2023-02-20T12:03:58.755Z,7.60
2023-02-20T12:06:34.362Z,0.70
2023-02-20T12:09:02.598Z,1.13
2023-02-20T12:11:29.266Z,3.63
2023-02-20T12:13:58.211Z,5.82
2023-02-20T12:16:33.959Z,2.38
2023-02-20T12:19:16.924Z,1.10
2023-02-20T12:22:12.481Z,3.42
2023-02-20T12:24:54.492Z,6.32
2023-02-20T12:27:43.405Z,1.10
2023-02-20T12:30:33.109Z,2.42
2023-02-20T12:33:05.667Z,3.25
2023-02-20T12:35:36.422Z,6.38
2023-02-20T12:38:39.966Z,6.93
2023-02-20T12:41:44.198Z,3.58
2023-02-20T12:44:42.575Z,0.90
2023-02-20T12:47:25.925Z,2.33
2023-02-20T12:50:11.194Z,2.90
2023-02-20T12:52:40.592Z,9.73
2023-02-20T12:55:13.161Z,3.20
2023-02-20T12:58:03.528Z,4.00
2023-02-20T13:00:35.128Z,9.30
2023-02-20T13:03:24.765Z,4.00
2023-02-20T13:05:51.664Z,5.55
2023-02-20T13:08:23.825Z,44.72
2023-02-20T13:10:56.998Z,5.13
2023-02-20T13:13:32.102Z,1.25
2023-02-20T13:16:10.034Z,1.35
2023-02-20T13:19:06.009Z,3.20
2023-02-20T13:21:33.014Z,2.45
2023-02-20T13:24:21.508Z,10.20
2023-02-20T13:26:52.551Z,3.22
2023-02-20T13:29:27.608Z,3.30
2023-02-20T13:31:55.257Z,2.10
2023-02-20T13:34:21.849Z,2.97
2023-02-20T13:36:49.403Z,14.45
2023-02-20T13:39:18.732Z,3.15
2023-02-20T13:41:54.461Z,8.02
2023-02-20T13:44:36.587Z,1.08
2023-02-20T13:47:25.680Z,6.07
2023-02-20T13:49:58.356Z,7.63
2023-02-20T13:52:44.051Z,1.90
2023-02-20T13:55:10.795Z,6.53
2023-02-20T13:57:57.899Z,2.53
2023-02-20T14:00:32.506Z,8.13
2023-02-20T14:02:59.249Z,4.22
2023-02-20T14:05:30.677Z,3.47
2023-02-20T14:07:58.052Z,4.40
2023-02-20T14:10:31.782Z,3.42
2023-02-20T14:13:27.766Z,4.07
2023-02-20T14:16:01.297Z,1.52
2023-02-20T14:18:32.299Z,4.10
2023-02-20T14:21:21.299Z,1.40
2023-02-20T14:23:48.320Z,9.43
2023-02-20T14:26:25.037Z,1.83
2023-02-20T14:28:53.871Z,3.47
2023-02-20T14:31:33.811Z,13.10
2023-02-20T14:34:28.468Z,20.08
2023-02-20T14:36:58.452Z,6.90
2023-02-20T14:39:44.035Z,13.52
2023-02-20T14:42:14.672Z,5.45
2023-02-20T14:44:41.313Z,6.22
2023-02-20T14:47:14.939Z,5.80
2023-02-20T14:49:41.655Z,2.40
2023-02-20T14:52:11.330Z,13.43
2023-02-20T14:54:38.731Z,10.38
2023-02-20T14:57:05.642Z,128.60
2023-02-20T14:59:37.041Z,78.78
2023-02-20T15:02:16.691Z,96.35
2023-02-20T15:05:07.521Z,53.85
2023-02-20T15:07:34.361Z,67.63
2023-02-20T15:10:02.802Z,18.75
2023-02-20T15:12:40.574Z,29.17
2023-02-20T15:15:10.728Z,24.50
2023-02-20T15:17:41.644Z,21.70
2023-02-20T15:20:18.130Z,69.65
2023-02-20T15:22:44.804Z,132.63
2023-02-20T15:25:28.080Z,78.85
2023-02-20T15:28:27.375Z,24.15
2023-02-20T15:33:53.575Z,56.45
2023-02-20T15:36:24.872Z,74.00
2023-02-20T15:38:56.886Z,81.30
2023-02-20T15:41:23.821Z,11.13
2023-02-20T15:43:52.539Z,51.38
2023-02-20T15:48:45.931Z,181.55
2023-02-20T15:51:14.922Z,137.13
2023-02-20T15:53:42.862Z,23.73
2023-02-20T15:56:10.334Z,29.05
2023-02-20T15:58:38.316Z,28.08
2023-02-20T16:01:05.554Z,10.20
2023-02-20T16:03:41.787Z,22.42
2023-02-20T16:06:16.527Z,24.05
2023-02-20T16:08:44.572Z,32.25
2023-02-20T16:11:11.502Z,28.33
2023-02-20T16:13:39.940Z,47.33
2023-02-20T16:16:36.761Z,30.73
2023-02-20T16:19:04.390Z,43.88
2023-02-20T16:21:31.069Z,22.60
2023-02-20T16:23:57.892Z,38.10
2023-02-20T16:26:27.708Z,46.13
2023-02-20T16:29:01.661Z,27.83
2023-02-20T16:31:53.417Z,63.70
2023-02-20T16:34:22.138Z,35.80
2023-02-20T16:36:49.246Z,41.40
2023-02-20T16:39:25.637Z,39.83
2023-02-20T16:41:52.810Z,46.13
2023-02-20T16:44:21.734Z,47.42
2023-02-20T16:46:48.510Z,56.92
2023-02-20T16:49:17.864Z,43.78
2023-02-20T16:51:49.078Z,42.80
2023-02-20T16:54:15.892Z,46.83
2023-02-20T16:56:42.593Z,43.17
2023-02-20T16:59:10.529Z,56.35
2023-02-20T17:01:37.608Z,47.03
2023-02-20T17:04:04.619Z,49.15
2023-02-20T17:06:32.126Z,48.25
2023-02-20T17:09:00.902Z,62.97
2023-02-20T17:13:54.290Z,45.47
2023-02-20T17:16:30.682Z,70.57
2023-02-20T17:18:58.213Z,73.70
2023-02-20T17:21:24.874Z,77.22
2023-02-20T17:23:51.499Z,102.78
2023-02-20T17:26:18.288Z,63.20
2023-02-20T17:28:44.910Z,156.77
2023-02-20T17:31:11.851Z,36.15
2023-02-20T17:33:40.871Z,57.25
2023-02-20T17:38:34.244Z,60.55
2023-02-20T17:41:01.191Z,34.58
2023-02-20T17:43:27.980Z,49.60
2023-02-20T17:45:54.663Z,16.63
2023-02-20T17:48:21.392Z,41.10
2023-02-20T17:50:48.072Z,40.45
2023-02-20T17:53:15.069Z,55.10
2023-02-20T17:55:41.864Z,20.17
2023-02-20T17:58:08.532Z,17.00
2023-02-20T18:00:35.258Z,22.70
2023-02-20T18:03:02.321Z,15.82
2023-02-20T18:05:28.963Z,12.50
2023-02-20T18:07:55.613Z,25.17
2023-02-20T18:10:22.331Z,14.18
2023-02-20T18:13:02.665Z,12.20
2023-02-20T18:15:31.240Z,26.63
2023-02-20T18:17:57.915Z,29.38
2023-02-20T18:20:24.537Z,19.23
2023-02-20T18:22:51.255Z,9.88
2023-02-20T18:25:22.145Z,15.30
2023-02-20T18:27:50.516Z,15.18
2023-02-20T18:30:18.941Z,9.82
2023-02-20T18:32:45.647Z,6.47
2023-02-20T18:35:12.334Z,7.55
2023-02-20T18:37:39.044Z,43.70
2023-02-20T18:40:06.333Z,12.07
2023-02-20T18:42:33.039Z,10.73
2023-02-20T18:44:59.684Z,33.30
2023-02-20T18:47:26.317Z,17.52
2023-02-20T18:49:53.023Z,46.35
2023-02-20T18:52:23.445Z,28.98
2023-02-20T18:54:50.458Z,28.85
2023-02-20T18:57:17.164Z,30.08
2023-02-20T18:59:43.988Z,43.92
2023-02-20T19:02:15.724Z,49.60
2023-02-20T19:04:42.410Z,15.93
2023-02-20T19:07:09.139Z,23.40
2023-02-20T19:09:38.970Z,28.92
2023-02-20T19:12:09.754Z,17.30
2023-02-20T19:14:37.484Z,33.85
2023-02-20T19:17:04.184Z,35.78
2023-02-20T19:19:31.266Z,16.83
2023-02-20T19:21:58.140Z,17.92
2023-02-20T19:24:25.034Z,15.13
2023-02-20T19:26:51.718Z,9.80
2023-02-20T19:29:18.507Z,8.45
2023-02-20T19:31:45.455Z,11.23
2023-02-20T19:34:12.393Z,8.30
2023-02-20T19:36:40.687Z,9.95
2023-02-20T19:39:09.678Z,10.82
2023-02-20T19:41:38.061Z,10.60
2023-02-20T19:44:05.158Z,18.98
2023-02-20T19:46:31.776Z,9.05
2023-02-20T19:48:58.477Z,9.13
2023-02-20T19:51:25.074Z,13.48
2023-02-20T19:53:51.730Z,28.67
2023-02-20T19:56:18.360Z,7.70
2023-02-20T19:58:45.095Z,5.18
2023-02-20T20:01:16.271Z,22.23
2023-02-20T20:03:43.791Z,10.40
2023-02-20T20:06:11.471Z,9.70
2023-02-20T20:08:43.669Z,21.73
2023-02-20T20:11:18.375Z,9.40
2023-02-20T20:13:45.058Z,12.77
2023-02-20T20:16:11.975Z,14.68
2023-02-20T20:18:38.741Z,15.10
2023-02-20T20:21:05.722Z,10.25
2023-02-20T20:23:32.370Z,11.10
2023-02-20T20:25:59.063Z,12.23
2023-02-20T20:28:25.792Z,18.75
2023-02-20T20:30:52.634Z,18.48
2023-02-20T20:33:19.483Z,13.82
2023-02-20T20:35:46.287Z,11.80
2023-02-20T20:38:13.001Z,11.82
2023-02-20T20:40:39.748Z,6.45
2023-02-20T20:43:07.544Z,8.27
2023-02-20T20:45:34.231Z,7.28
2023-02-20T20:48:00.988Z,17.85
2023-02-20T20:50:27.875Z,30.70
2023-02-20T20:52:54.619Z,31.85
2023-02-20T20:55:21.298Z,26.73
2023-02-20T20:57:47.978Z,24.08
2023-02-20T21:00:44.085Z,20.17
2023-02-20T21:03:11.128Z,20.73
2023-02-20T21:05:37.876Z,20.50
2023-02-20T21:08:06.132Z,34.47
2023-02-20T21:10:32.846Z,23.95
2023-02-20T21:12:59.733Z,26.42
2023-02-20T21:15:26.691Z,17.42
2023-02-20T21:17:53.306Z,17.40
2023-02-20T21:20:22.873Z,17.25
2023-02-20T21:22:51.131Z,23.85
2023-02-20T21:25:19.022Z,21.50
2023-02-20T21:27:45.789Z,24.30
2023-02-20T21:30:12.737Z,44.65
2023-02-20T21:32:39.439Z,27.35
2023-02-20T21:35:06.370Z,18.40
2023-02-20T21:37:33.068Z,13.00
2023-02-20T21:39:59.748Z,14.15
2023-02-20T21:42:45.018Z,20.80
2023-02-20T21:45:11.719Z,15.00
2023-02-20T21:47:38.351Z,16.25
2023-02-20T21:50:06.206Z,26.05
2023-02-20T21:52:36.836Z,18.55
2023-02-20T21:55:08.870Z,9.85
2023-02-20T21:57:35.558Z,10.35
2023-02-20T22:00:02.510Z,9.48
2023-02-20T22:02:29.146Z,10.20
2023-02-20T22:04:57.934Z,13.25
2023-02-20T22:07:43.006Z,4.70
2023-02-20T22:10:28.666Z,11.88
2023-02-20T22:13:13.792Z,8.27
2023-02-20T22:15:59.038Z,6.82
2023-02-20T22:18:44.308Z,13.43
2023-02-20T22:21:34.340Z,8.88
2023-02-20T22:24:24.564Z,10.00
2023-02-20T22:27:15.773Z,10.02
2023-02-20T22:30:01.176Z,10.73
2023-02-20T22:32:46.455Z,7.30
2023-02-20T22:35:32.282Z,6.90
2023-02-20T22:38:17.539Z,7.85
2023-02-20T22:41:02.842Z,9.68
2023-02-20T22:43:47.992Z,16.70
2023-02-20T22:46:33.164Z,19.15
2023-02-20T22:49:18.520Z,18.08
2023-02-20T22:52:08.346Z,18.55
2023-02-20T22:55:04.367Z,25.63
2023-02-20T22:57:50.447Z,20.13
2023-02-20T23:00:35.639Z,30.10
2023-02-20T23:03:21.057Z,39.38
2023-02-20T23:06:16.842Z,37.60
2023-02-20T23:09:03.411Z,38.50
2023-02-20T23:11:51.710Z,36.63
2023-02-20T23:14:36.880Z,36.92
2023-02-20T23:17:34.268Z,36.47
2023-02-20T23:20:21.214Z,30.00
2023-02-20T23:23:06.384Z,28.88
2023-02-20T23:25:51.628Z,27.60
2023-02-20T23:28:37.653Z,27.73
2023-02-20T23:31:23.630Z,23.83
2023-02-20T23:34:08.924Z,25.15
2023-02-20T23:36:54.456Z,25.92
2023-02-20T23:39:39.569Z,26.40
2023-02-20T23:42:24.815Z,18.77
2023-02-20T23:45:10.043Z,22.70
2023-02-20T23:47:55.621Z,35.92
2023-02-20T23:50:41.098Z,20.23
2023-02-20T23:53:26.472Z,17.15
2023-02-20T23:56:11.701Z,14.32
2023-02-20T23:58:56.937Z,11.38
